createdAt,value
2022-10-19T00:01:15.160Z,7.10
2022-10-19T00:03:46.745Z,5.95
2022-10-19T00:06:16.190Z,6.30
2022-10-19T00:08:45.063Z,6.40
2022-10-19T00:11:13.983Z,6.28
2022-10-19T00:13:41.681Z,6.13
2022-10-19T00:16:11.651Z,6.45
2022-10-19T00:18:40.063Z,6.47
2022-10-19T00:21:08.897Z,6.68
2022-10-19T00:23:36.853Z,7.43
2022-10-19T00:26:04.743Z,6.68
2022-10-19T00:28:34.060Z,7.45
2022-10-19T00:31:04.046Z,7.00
2022-10-19T00:33:31.923Z,6.80
2022-10-19T00:35:59.259Z,7.93
2022-10-19T00:38:27.919Z,6.88
2022-10-19T00:40:55.379Z,7.35
2022-10-19T00:43:26.273Z,7.63
2022-10-19T00:45:54.962Z,7.25
2022-10-19T00:48:26.223Z,7.53
2022-10-19T00:50:58.510Z,8.02
2022-10-19T00:53:28.622Z,8.95
2022-10-19T00:55:57.436Z,8.10
2022-10-19T00:58:25.094Z,8.68
2022-10-19T01:00:54.391Z,8.50
2022-10-19T01:03:22.044Z,8.68
2022-10-19T01:05:49.844Z,10.00
2022-10-19T01:08:17.894Z,9.88
2022-10-19T01:10:52.998Z,9.30
2022-10-19T01:13:36.305Z,8.93
2022-10-19T01:16:12.225Z,9.20
2022-10-19T01:18:49.555Z,9.50
2022-10-19T01:21:23.303Z,9.15
2022-10-19T01:24:22.291Z,10.38
2022-10-19T01:27:23.197Z,9.52
2022-10-19T01:30:02.866Z,9.57
2022-10-19T01:32:40.538Z,9.82
2022-10-19T01:35:12.217Z,9.60
2022-10-19T01:37:47.050Z,9.95
2022-10-19T01:40:22.052Z,10.02
2022-10-19T01:42:57.369Z,9.85
2022-10-19T01:45:31.646Z,10.52
2022-10-19T01:48:02.824Z,10.18
2022-10-19T01:50:36.214Z,9.38
2022-10-19T01:53:06.095Z,10.27
2022-10-19T01:55:34.329Z,9.63
2022-10-19T01:58:08.286Z,9.55
2022-10-19T02:00:42.428Z,9.63
2022-10-19T02:03:12.284Z,10.57
2022-10-19T02:05:41.809Z,10.40
2022-10-19T02:08:14.960Z,10.60
2022-10-19T02:10:44.548Z,9.88
2022-10-19T02:13:14.000Z,10.85
2022-10-19T02:15:47.614Z,10.95
2022-10-19T02:18:20.645Z,9.65
2022-10-19T02:20:48.370Z,10.45
2022-10-19T02:23:20.395Z,11.00
2022-10-19T02:25:48.444Z,11.00
2022-10-19T02:28:16.268Z,10.75
2022-10-19T02:30:45.370Z,10.82
2022-10-19T02:33:12.966Z,11.68
2022-10-19T02:35:40.848Z,11.45
2022-10-19T02:38:11.418Z,11.07
2022-10-19T02:40:43.496Z,11.80
2022-10-19T02:43:14.167Z,10.65
2022-10-19T02:45:49.106Z,10.90
2022-10-19T02:48:21.606Z,11.75
2022-10-19T02:50:49.260Z,10.82
2022-10-19T02:53:16.980Z,11.93
2022-10-19T02:55:47.376Z,10.57
2022-10-19T02:58:14.852Z,11.23
2022-10-19T03:00:42.603Z,11.32
2022-10-19T03:03:11.489Z,11.35
2022-10-19T03:05:39.328Z,11.32
2022-10-19T03:08:06.766Z,10.73
2022-10-19T03:10:34.569Z,10.95
2022-10-19T03:13:01.976Z,10.98
2022-10-19T03:15:29.664Z,10.18
2022-10-19T03:17:57.520Z,10.82
2022-10-19T03:20:26.558Z,10.80
2022-10-19T03:25:21.430Z,10.90
2022-10-19T03:27:48.750Z,10.55
2022-10-19T03:30:16.579Z,11.50
2022-10-19T03:32:44.022Z,11.20
2022-10-19T03:35:11.698Z,11.13
2022-10-19T03:37:40.356Z,10.32
2022-10-19T03:40:09.166Z,9.88
2022-10-19T03:42:36.491Z,10.32
2022-10-19T03:45:04.684Z,11.05
2022-10-19T03:47:32.236Z,10.50
2022-10-19T03:50:00.321Z,10.32
2022-10-19T03:52:27.569Z,10.88
2022-10-19T03:54:56.625Z,10.10
2022-10-19T03:57:23.907Z,10.77
2022-10-19T03:59:51.938Z,10.60
2022-10-19T04:02:19.333Z,9.23
2022-10-19T04:04:47.208Z,10.20
2022-10-19T04:07:14.386Z,10.23
2022-10-19T04:09:42.192Z,9.60
2022-10-19T04:12:11.122Z,9.50
2022-10-19T04:14:56.227Z,9.85
2022-10-19T04:17:26.291Z,10.35
2022-10-19T04:19:54.038Z,9.65
2022-10-19T04:22:21.321Z,9.43
2022-10-19T04:24:49.273Z,9.68
2022-10-19T04:27:18.413Z,9.45
2022-10-19T04:29:46.103Z,8.88
2022-10-19T04:32:13.521Z,9.60
2022-10-19T04:34:41.280Z,8.50
2022-10-19T04:37:08.734Z,8.25
2022-10-19T04:39:36.377Z,9.55
2022-10-19T04:42:03.789Z,9.07
2022-10-19T04:44:33.079Z,8.52
2022-10-19T04:47:00.991Z,7.93
2022-10-19T04:49:28.910Z,7.57
2022-10-19T04:51:56.383Z,7.55
2022-10-19T04:54:24.257Z,7.28
2022-10-19T04:56:51.862Z,7.60
2022-10-19T04:59:19.865Z,7.18
2022-10-19T05:01:48.677Z,7.13
2022-10-19T05:04:16.891Z,6.47
2022-10-19T05:06:44.411Z,6.50
2022-10-19T05:09:12.258Z,7.13
2022-10-19T05:11:39.724Z,6.13
2022-10-19T05:14:07.596Z,5.53
2022-10-19T05:16:34.905Z,5.60
2022-10-19T05:19:04.403Z,5.13
2022-10-19T05:21:31.813Z,5.40
2022-10-19T05:23:59.584Z,5.03
2022-10-19T05:26:28.543Z,5.25
2022-10-19T05:28:57.987Z,4.75
2022-10-19T05:31:27.700Z,4.35
2022-10-19T05:33:56.041Z,5.03
2022-10-19T05:36:26.350Z,4.45
2022-10-19T05:38:55.628Z,5.43
2022-10-19T05:41:24.272Z,4.80
2022-10-19T05:43:54.596Z,4.03
2022-10-19T05:46:22.419Z,4.50
2022-10-19T05:48:50.284Z,4.20
2022-10-19T05:51:19.453Z,3.90
2022-10-19T05:53:49.237Z,4.18
2022-10-19T05:56:20.850Z,4.18
2022-10-19T05:58:49.357Z,4.38
2022-10-19T06:01:17.742Z,4.38
2022-10-19T06:03:46.190Z,3.92
2022-10-19T06:06:13.792Z,4.30
2022-10-19T06:08:41.628Z,3.58
2022-10-19T06:11:12.497Z,4.03
2022-10-19T06:13:41.731Z,4.45
2022-10-19T06:16:10.520Z,4.30
2022-10-19T06:18:38.518Z,4.00
2022-10-19T06:21:08.023Z,3.88
2022-10-19T06:23:36.421Z,3.88
2022-10-19T06:26:06.776Z,3.90
2022-10-19T06:28:37.050Z,3.75
2022-10-19T06:31:07.160Z,4.05
2022-10-19T06:33:39.156Z,3.95
2022-10-19T06:36:07.011Z,3.80
2022-10-19T06:38:34.660Z,4.03
2022-10-19T06:41:02.382Z,4.22
2022-10-19T06:43:30.518Z,3.42
2022-10-19T06:45:59.610Z,4.00
2022-10-19T06:48:27.893Z,3.47
2022-10-19T06:50:59.270Z,3.63
2022-10-19T06:53:28.292Z,3.97
2022-10-19T06:55:57.856Z,3.65
2022-10-19T06:58:26.076Z,3.80
2022-10-19T07:00:57.303Z,3.47
2022-10-19T07:03:27.052Z,3.75
2022-10-19T07:05:55.861Z,3.50
2022-10-19T07:08:24.558Z,3.47
2022-10-19T07:10:52.314Z,3.00
2022-10-19T07:13:20.660Z,3.50
2022-10-19T07:15:48.167Z,2.80
2022-10-19T07:18:16.361Z,3.08
2022-10-19T07:20:54.621Z,3.33
2022-10-19T07:23:22.337Z,3.03
2022-10-19T07:25:49.685Z,3.05
2022-10-19T07:28:17.449Z,2.88
2022-10-19T07:30:44.848Z,3.42
2022-10-19T07:33:12.773Z,3.00
2022-10-19T07:35:40.128Z,2.85
2022-10-19T07:38:09.413Z,2.42
2022-10-19T07:40:37.134Z,2.50
2022-10-19T07:43:05.089Z,2.65
2022-10-19T07:45:33.113Z,2.38
2022-10-19T07:48:00.692Z,2.35
2022-10-19T07:50:27.898Z,2.78
2022-10-19T07:52:55.693Z,2.30
2022-10-19T07:55:24.371Z,3.05
2022-10-19T07:57:51.945Z,2.42
2022-10-19T08:00:19.437Z,2.33
2022-10-19T08:03:04.948Z,2.25
2022-10-19T08:05:35.123Z,2.40
2022-10-19T08:08:03.447Z,2.20
2022-10-19T08:10:32.472Z,2.13
2022-10-19T08:13:00.160Z,1.83
2022-10-19T08:15:29.853Z,2.17
2022-10-19T08:17:57.751Z,2.25
2022-10-19T08:20:25.106Z,2.42
2022-10-19T08:22:56.459Z,2.17
2022-10-19T08:25:26.749Z,2.22
2022-10-19T08:27:55.779Z,1.67
2022-10-19T08:30:23.118Z,1.65
2022-10-19T08:32:50.749Z,1.70
2022-10-19T08:35:18.495Z,1.63
2022-10-19T08:37:46.580Z,2.10
2022-10-19T08:40:18.997Z,1.70
2022-10-19T08:42:55.565Z,1.98
2022-10-19T08:48:25.404Z,1.88
2022-10-19T08:53:27.144Z,1.50
2022-10-19T08:56:04.946Z,2.13
2022-10-19T08:58:46.466Z,1.50
2022-10-19T09:01:26.391Z,2.40
2022-10-19T09:04:01.256Z,1.90
2022-10-19T09:06:35.100Z,2.28
2022-10-19T09:09:03.531Z,1.75
2022-10-19T09:11:35.637Z,1.77
2022-10-19T09:14:11.006Z,2.13
2022-10-19T09:16:40.163Z,1.75
2022-10-19T09:19:15.542Z,1.85
2022-10-19T09:21:48.854Z,1.73
2022-10-19T09:24:29.123Z,1.63
2022-10-19T09:26:58.877Z,1.73
2022-10-19T09:29:31.789Z,2.08
2022-10-19T09:32:04.173Z,2.15
2022-10-19T09:34:36.788Z,1.80
2022-10-19T09:39:32.098Z,2.08
2022-10-19T09:42:16.530Z,2.20
2022-10-19T09:44:50.181Z,2.10
2022-10-19T09:47:32.025Z,2.05
2022-10-19T09:50:16.617Z,1.92
2022-10-19T09:52:45.393Z,2.10
2022-10-19T09:55:36.121Z,1.75
2022-10-19T09:58:06.092Z,1.88
2022-10-19T10:00:36.803Z,4.18
2022-10-19T10:03:06.735Z,2.20
2022-10-19T10:05:36.059Z,2.25
2022-10-19T10:08:04.072Z,2.17
2022-10-19T10:10:38.035Z,1.98
2022-10-19T10:13:06.141Z,2.05
2022-10-19T10:15:43.709Z,2.17
2022-10-19T10:18:16.873Z,1.90
2022-10-19T10:20:58.620Z,1.92
2022-10-19T10:23:30.475Z,2.38
2022-10-19T10:28:27.372Z,1.88
2022-10-19T10:30:59.794Z,2.08
2022-10-19T10:36:14.647Z,1.55
2022-10-19T10:38:46.547Z,1.80
2022-10-19T10:41:16.429Z,1.70
2022-10-19T10:46:23.828Z,1.60
2022-10-19T10:48:58.456Z,1.40
2022-10-19T10:51:33.364Z,1.30
2022-10-19T10:54:15.685Z,1.67
2022-10-19T10:57:10.898Z,1.60
2022-10-19T10:59:45.759Z,1.45
2022-10-19T11:05:01.869Z,1.40
2022-10-19T11:07:32.875Z,0.95
2022-10-19T11:10:06.697Z,1.20
2022-10-19T11:12:40.033Z,1.08
2022-10-19T11:15:17.366Z,1.40
2022-10-19T11:17:56.920Z,1.00
2022-10-19T11:20:30.159Z,1.00
2022-10-19T11:23:07.152Z,1.02
2022-10-19T11:25:45.572Z,1.50
2022-10-19T11:28:29.615Z,1.50
2022-10-19T11:31:04.538Z,1.25
2022-10-19T11:33:44.735Z,1.27
2022-10-19T11:36:28.811Z,1.17
2022-10-19T11:39:13.554Z,1.50
2022-10-19T11:41:50.709Z,1.23
2022-10-19T11:44:28.922Z,1.30
2022-10-19T11:47:11.625Z,1.30
2022-10-19T11:49:54.468Z,1.10
2022-10-19T11:52:34.193Z,1.50
2022-10-19T11:55:14.017Z,1.20
2022-10-19T11:57:48.753Z,1.33
2022-10-19T12:00:37.733Z,1.30
2022-10-19T12:03:38.832Z,1.67
2022-10-19T12:06:12.297Z,1.35
2022-10-19T12:08:58.173Z,1.55
2022-10-19T12:11:36.742Z,1.15
2022-10-19T12:14:10.948Z,1.30
2022-10-19T12:16:44.410Z,1.25
2022-10-19T12:19:19.496Z,1.17
2022-10-19T12:21:48.734Z,1.33
2022-10-19T12:24:20.376Z,1.52
2022-10-19T12:26:49.456Z,1.15
2022-10-19T12:29:20.545Z,1.50
2022-10-19T12:31:49.083Z,1.40
2022-10-19T12:34:26.979Z,1.25
2022-10-19T12:36:59.055Z,1.52
2022-10-19T12:39:35.022Z,1.33
2022-10-19T12:42:14.731Z,1.33
2022-10-19T12:45:10.257Z,1.83
2022-10-19T12:47:38.123Z,1.40
2022-10-19T12:50:06.166Z,1.20
2022-10-19T12:52:38.344Z,1.45
2022-10-19T12:55:29.616Z,1.10
2022-10-19T12:58:01.755Z,1.20
2022-10-19T13:00:31.205Z,1.10
2022-10-19T13:03:03.032Z,1.05
2022-10-19T13:05:32.395Z,0.90
2022-10-19T13:08:02.535Z,1.20
2022-10-19T13:10:33.266Z,1.02
2022-10-19T13:13:02.015Z,1.25
2022-10-19T13:15:56.956Z,1.17
2022-10-19T13:19:01.643Z,1.38
2022-10-19T13:21:50.666Z,1.10
2022-10-19T13:24:33.133Z,1.10
2022-10-19T13:27:25.819Z,1.02
2022-10-19T13:29:53.975Z,1.20
2022-10-19T13:32:40.896Z,1.17
2022-10-19T13:35:33.434Z,1.20
2022-10-19T13:38:31.239Z,1.30
2022-10-19T13:41:05.493Z,1.20
2022-10-19T13:43:39.920Z,1.25
2022-10-19T13:46:14.240Z,1.10
2022-10-19T13:49:13.640Z,1.02
2022-10-19T13:51:50.245Z,1.20
2022-10-19T13:54:38.175Z,1.20
2022-10-19T13:57:18.180Z,1.33
2022-10-19T14:00:05.450Z,1.00
2022-10-19T14:03:16.652Z,1.15
2022-10-19T14:06:22.271Z,1.40
2022-10-19T14:09:25.838Z,1.30
2022-10-19T14:11:54.524Z,1.30
2022-10-19T14:14:24.497Z,1.10
2022-10-19T14:16:59.763Z,1.10
2022-10-19T14:19:33.299Z,1.40
2022-10-19T14:22:17.264Z,1.10
2022-10-19T14:24:45.100Z,1.30
2022-10-19T14:27:19.426Z,1.38
2022-10-19T14:29:49.595Z,1.23
2022-10-19T14:32:22.415Z,1.33
2022-10-19T14:34:50.629Z,1.33
2022-10-19T14:37:20.281Z,1.50
2022-10-19T14:40:02.357Z,1.55
2022-10-19T14:42:38.043Z,1.65
2022-10-19T14:45:12.431Z,1.40
2022-10-19T14:47:53.669Z,1.80
2022-10-19T14:53:33.977Z,1.60
2022-10-19T14:56:06.771Z,1.50
2022-10-19T15:01:05.810Z,1.40
2022-10-19T15:03:34.836Z,1.45
2022-10-19T15:06:06.087Z,1.38
2022-10-19T15:08:37.813Z,1.40
2022-10-19T15:11:07.195Z,1.35
2022-10-19T15:13:40.403Z,1.30
2022-10-19T15:16:29.703Z,1.52
2022-10-19T15:19:03.971Z,1.10
2022-10-19T15:21:33.517Z,1.40
2022-10-19T15:24:15.699Z,1.70
2022-10-19T15:27:01.720Z,1.60
2022-10-19T15:29:36.256Z,1.27
2022-10-19T15:32:15.506Z,1.90
2022-10-19T15:34:45.942Z,1.50
2022-10-19T15:37:19.996Z,1.65
2022-10-19T15:39:48.219Z,1.17
2022-10-19T15:42:34.099Z,1.77
2022-10-19T15:45:02.500Z,1.40
2022-10-19T15:47:30.418Z,1.38
2022-10-19T15:50:01.045Z,1.60
2022-10-19T15:52:29.942Z,1.50
2022-10-19T15:54:58.806Z,1.80
2022-10-19T15:57:30.553Z,1.83
2022-10-19T16:00:00.232Z,1.73
2022-10-19T16:02:28.092Z,1.58
2022-10-19T16:04:55.776Z,2.25
2022-10-19T16:07:29.464Z,3.70
2022-10-19T16:09:57.307Z,2.70
2022-10-19T16:12:26.414Z,1.88
2022-10-19T16:14:54.474Z,1.83
2022-10-19T16:17:22.530Z,1.42
2022-10-19T16:19:50.207Z,1.63
2022-10-19T16:22:20.777Z,1.40
2022-10-19T16:24:49.540Z,2.53
2022-10-19T16:27:17.801Z,5.43
2022-10-19T16:29:45.230Z,5.75
2022-10-19T16:32:13.092Z,6.07
2022-10-19T16:34:40.597Z,4.75
2022-10-19T16:37:08.560Z,4.32
2022-10-19T16:39:35.945Z,3.70
2022-10-19T16:42:05.107Z,3.65
2022-10-19T16:44:32.732Z,2.67
2022-10-19T16:47:00.385Z,2.13
2022-10-19T16:49:27.998Z,2.30
2022-10-19T16:51:57.460Z,2.33
2022-10-19T16:54:28.897Z,2.20
2022-10-19T16:56:56.679Z,2.20
2022-10-19T16:59:25.329Z,2.53
2022-10-19T17:01:53.031Z,2.05
2022-10-19T17:04:20.458Z,2.33
2022-10-19T17:06:48.469Z,2.50
2022-10-19T17:09:41.319Z,2.95
2022-10-19T17:12:05.626Z,2.92
2022-10-19T17:14:35.478Z,2.60
2022-10-19T17:17:03.491Z,1.85
2022-10-19T17:19:33.550Z,2.22
2022-10-19T17:22:01.391Z,2.70
2022-10-19T17:24:28.882Z,2.55
2022-10-19T17:26:56.656Z,3.03
2022-10-19T17:29:24.494Z,2.88
2022-10-19T17:31:53.614Z,3.20
2022-10-19T17:34:20.942Z,3.85
2022-10-19T17:36:49.053Z,3.65
2022-10-19T17:39:19.063Z,3.92
2022-10-19T17:41:51.715Z,3.88
2022-10-19T17:46:48.306Z,4.80
2022-10-19T17:49:17.935Z,4.80
2022-10-19T17:51:45.778Z,4.63
2022-10-19T17:54:14.588Z,3.42
2022-10-19T17:56:42.992Z,4.72
2022-10-19T17:59:10.620Z,4.68
2022-10-19T18:01:38.708Z,4.35
2022-10-19T18:04:06.816Z,4.70
2022-10-19T18:06:37.418Z,4.72
2022-10-19T18:09:08.027Z,4.60
2022-10-19T18:11:37.519Z,5.00
2022-10-19T18:14:06.420Z,4.65
2022-10-19T18:16:36.197Z,4.45
2022-10-19T18:19:04.992Z,4.10
2022-10-19T18:21:37.561Z,4.53
2022-10-19T18:24:09.070Z,4.28
2022-10-19T18:26:39.965Z,4.57
2022-10-19T18:29:11.389Z,4.28
2022-10-19T18:31:40.022Z,3.65
2022-10-19T18:34:13.098Z,4.25
2022-10-19T18:36:43.629Z,4.50
2022-10-19T18:39:13.901Z,4.68
2022-10-19T18:41:42.532Z,6.18
2022-10-19T18:44:13.334Z,5.53
2022-10-19T18:46:41.670Z,5.03
2022-10-19T18:49:10.514Z,4.55
2022-10-19T18:51:39.227Z,5.10
2022-10-19T18:54:08.650Z,4.22
2022-10-19T18:56:36.579Z,4.00
2022-10-19T18:59:04.431Z,4.45
2022-10-19T19:01:32.584Z,3.72
2022-10-19T19:04:07.157Z,4.60
2022-10-19T19:06:36.802Z,4.90
2022-10-19T19:09:08.217Z,4.53
2022-10-19T19:11:37.743Z,3.95
2022-10-19T19:14:07.709Z,3.80
2022-10-19T19:16:36.967Z,3.25
2022-10-19T19:19:04.874Z,3.33
2022-10-19T19:21:33.229Z,3.03
2022-10-19T19:24:03.058Z,3.30
2022-10-19T19:26:34.506Z,3.20
2022-10-19T19:29:01.851Z,4.05
2022-10-19T19:31:29.757Z,3.28
2022-10-19T19:34:00.030Z,3.58
2022-10-19T19:36:28.893Z,3.83
2022-10-19T19:38:57.325Z,3.88
2022-10-19T19:41:25.401Z,4.18
2022-10-19T19:43:55.566Z,4.72
2022-10-19T19:46:23.504Z,4.93
2022-10-19T19:48:51.188Z,5.22
2022-10-19T19:51:21.004Z,4.57
2022-10-19T19:53:48.741Z,4.55
2022-10-19T19:56:16.988Z,4.65
2022-10-19T19:58:45.580Z,5.03
2022-10-19T20:01:17.360Z,5.10
2022-10-19T20:03:45.429Z,5.50
2022-10-19T20:06:14.231Z,6.00
2022-10-19T20:08:41.837Z,5.03
2022-10-19T20:11:12.224Z,5.60
2022-10-19T20:13:40.086Z,5.55
2022-10-19T20:16:08.931Z,5.88
2022-10-19T20:18:37.699Z,6.03
2022-10-19T20:21:05.900Z,5.80
2022-10-19T20:23:33.567Z,6.07
2022-10-19T20:26:01.636Z,5.22
2022-10-19T20:28:31.782Z,5.97
2022-10-19T20:31:00.912Z,5.25
2022-10-19T20:33:30.392Z,4.80
2022-10-19T20:36:03.285Z,5.65
2022-10-19T20:40:58.365Z,4.90
2022-10-19T20:43:25.803Z,3.92
2022-10-19T20:45:53.482Z,4.55
2022-10-19T20:48:20.775Z,4.28
2022-10-19T20:50:48.778Z,5.47
2022-10-19T20:53:17.527Z,5.78
2022-10-19T20:55:45.331Z,4.63
2022-10-19T20:58:12.672Z,4.53
2022-10-19T21:00:40.667Z,4.03
2022-10-19T21:03:07.986Z,4.22
2022-10-19T21:05:38.354Z,4.75
2022-10-19T21:08:05.780Z,4.47
2022-10-19T21:10:34.950Z,4.70
2022-10-19T21:13:02.266Z,4.53
2022-10-19T21:15:29.799Z,5.03
2022-10-19T21:17:57.115Z,6.13
2022-10-19T21:20:24.944Z,5.72
2022-10-19T21:22:52.047Z,7.93
2022-10-19T21:25:19.816Z,5.57
2022-10-19T21:27:51.612Z,5.18
2022-10-19T21:30:19.106Z,5.63
2022-10-19T21:32:47.956Z,4.88
2022-10-19T21:35:16.258Z,5.45
2022-10-19T21:37:43.730Z,5.75
2022-10-19T21:40:11.760Z,5.60
2022-10-19T21:42:38.999Z,5.25
2022-10-19T21:45:29.173Z,4.90
2022-10-19T21:47:57.390Z,5.90
2022-10-19T21:50:25.197Z,6.38
2022-10-19T21:52:52.343Z,6.07
2022-10-19T21:55:20.050Z,4.78
2022-10-19T21:57:47.326Z,7.75
2022-10-19T22:00:16.274Z,6.38
2022-10-19T22:02:43.672Z,5.45
2022-10-19T22:05:11.366Z,5.90
2022-10-19T22:07:41.373Z,6.22
2022-10-19T22:10:09.863Z,6.05
2022-10-19T22:12:37.712Z,3.75
2022-10-19T22:15:06.857Z,4.60
2022-10-19T22:17:35.743Z,5.15
2022-10-19T22:20:04.700Z,5.30
2022-10-19T22:22:32.030Z,4.97
2022-10-19T22:25:00.132Z,3.53
2022-10-19T22:27:27.652Z,5.53
2022-10-19T22:29:55.283Z,5.32
2022-10-19T22:32:22.682Z,5.53
2022-10-19T22:34:51.976Z,4.70
2022-10-19T22:37:19.303Z,4.22
2022-10-19T22:39:46.997Z,4.80
2022-10-19T22:42:51.342Z,4.95
2022-10-19T22:45:19.266Z,6.30
2022-10-19T22:47:47.143Z,6.55
2022-10-19T22:50:16.545Z,4.72
2022-10-19T22:52:44.505Z,7.50
2022-10-19T22:55:12.418Z,7.20
2022-10-19T22:57:39.829Z,5.03
2022-10-19T23:00:08.890Z,4.18
2022-10-19T23:02:36.402Z,4.30
2022-10-19T23:05:05.226Z,5.10
2022-10-19T23:07:34.713Z,4.72
2022-10-19T23:10:02.717Z,4.82
2022-10-19T23:12:30.212Z,5.03
2022-10-19T23:14:58.097Z,4.80
2022-10-19T23:17:25.739Z,4.70
2022-10-19T23:19:53.821Z,5.30
2022-10-19T23:22:21.334Z,4.78
2022-10-19T23:24:50.509Z,3.42
2022-10-19T23:27:17.822Z,4.13
2022-10-19T23:29:45.898Z,4.07
2022-10-19T23:32:13.306Z,4.07
2022-10-19T23:34:43.211Z,3.80
2022-10-19T23:37:13.225Z,4.72
2022-10-19T23:39:40.916Z,3.90
2022-10-19T23:42:09.699Z,4.88
2022-10-19T23:44:40.551Z,4.03
2022-10-19T23:47:08.197Z,4.28
2022-10-19T23:49:35.858Z,4.63
2022-10-19T23:52:03.336Z,3.85
2022-10-19T23:54:31.657Z,3.78
2022-10-19T23:56:58.991Z,5.07
2022-10-19T23:59:28.123Z,5.00
